Pagrindinis puslapis
METAR-TAF:

METAR-TAF

Oro uostai :

Turaif, Saudo Arabija

platuma: 31-41N, ilguma: 038-44E, Aukštis: 813 m

Dabartinis oras

Ataskaita buvo paskelbta 1 valandą ir 14 minutes, ne 12:00 UTC
Vėjas 4 kt iš Vakarų/Šiaurės Vakarų
Temperatūra 31°C
Drėgmė 12%
Slėgis 1009 hPa
Matomumas 10 km arba daugiau
Išsisklaidę debesys ne aukštis 4000 ft

METAR: OETR 201200Z 29004KT 9999 SCT040 31/M02 Q1009 NOSIG

Laikas: 16:14 (13:14 UTC)

Prognozė

Ataskaita buvo paskelbta 2 valandos ir 14 minutes, ne 11:00 UTC
Prognozė galioja nuo 20 metu 12 UTC su 21 metu 18 UTC
Vėjas 10 kt iš Vakarų
Matomumas: 7000 m
Mažai debesys ne aukštis 4000 ft
Tapsmas
nuo 20 metu 18 UTC su 20 metu 20 UTC
Vėjas 15 kt iš Šiaurės/Šiaurės Vakarų

TAF: OETR 201100Z 2012/2118 27010KT 7000 FEW040 BECMG 2018/2020 33015KT

Orai ataskaitas ir orų prognozės (METAR, TAF).

turimą stotys yra geltonos ir raudonos taškus žemėlapyje.

Perkelti pele per norėdami pamatyti stoties vardą.

Tada spustelėkite, norėdami matyti oro stebėjimo ir prognozės.

Norėdami pakeisti žemėlapį: spustelėkite ant žalios mygtukų su juodo kryžiaus žemyn,; žalią mygtuką su brūkšneliu, jei norite nutolinti; arba žalių rodyklių gretimoms žemėlapius.


METAR-TAF: